createdAt,value
2022-07-30T00:02:10.943Z,22.80
2022-07-30T00:04:38.891Z,22.70
2022-07-30T00:07:08.710Z,22.60
2022-07-30T00:09:36.770Z,22.70
2022-07-30T00:12:05.788Z,22.80
2022-07-30T00:14:34.864Z,22.70
2022-07-30T00:17:03.808Z,22.60
2022-07-30T00:19:32.364Z,22.70
2022-07-30T00:22:00.308Z,22.80
2022-07-30T00:24:29.694Z,22.80
2022-07-30T00:26:57.799Z,22.70
2022-07-30T00:29:26.583Z,22.60
2022-07-30T00:31:54.548Z,22.50
2022-07-30T00:34:22.519Z,22.50
2022-07-30T00:36:50.478Z,22.50
2022-07-30T00:39:18.406Z,22.60
2022-07-30T00:41:59.294Z,22.60
2022-07-30T00:44:28.195Z,22.40
2022-07-30T00:46:56.343Z,22.30
2022-07-30T00:49:24.983Z,22.30
2022-07-30T00:51:53.284Z,22.30
2022-07-30T00:54:22.175Z,22.40
2022-07-30T00:56:50.636Z,22.20
2022-07-30T00:59:19.943Z,22.10
2022-07-30T01:01:48.056Z,22.20
2022-07-30T01:04:16.006Z,22.30
2022-07-30T01:06:43.954Z,22.50
2022-07-30T01:09:11.952Z,22.70
2022-07-30T01:11:42.128Z,22.80
2022-07-30T01:14:11.050Z,22.90
2022-07-30T01:16:43.669Z,22.90
2022-07-30T01:19:36.300Z,22.90
2022-07-30T01:22:11.742Z,22.90
2022-07-30T01:24:43.948Z,22.70
2022-07-30T01:27:19.632Z,22.50
2022-07-30T01:29:49.264Z,22.40
2022-07-30T01:32:18.751Z,22.40
2022-07-30T01:34:47.718Z,22.30
2022-07-30T01:37:18.046Z,22.20
2022-07-30T01:39:49.525Z,21.80
2022-07-30T01:42:20.260Z,21.50
2022-07-30T01:44:50.033Z,21.60
2022-07-30T01:47:19.825Z,21.60
2022-07-30T01:49:50.196Z,21.60
2022-07-30T01:52:19.693Z,21.70
2022-07-30T01:54:52.034Z,21.80
2022-07-30T01:57:23.029Z,21.70
2022-07-30T01:59:53.451Z,21.70
2022-07-30T02:02:21.613Z,21.90
2022-07-30T02:04:49.824Z,22.00
2022-07-30T02:07:30.316Z,22.10
2022-07-30T02:10:03.449Z,22.10
2022-07-30T02:12:34.786Z,22.00
2022-07-30T02:15:11.640Z,22.00
2022-07-30T02:17:45.143Z,21.90
2022-07-30T02:20:15.753Z,21.60
2022-07-30T02:22:46.898Z,21.40
2022-07-30T02:25:19.663Z,21.20
2022-07-30T02:27:54.771Z,21.20
2022-07-30T02:30:26.845Z,21.20
2022-07-30T02:33:01.001Z,21.50
2022-07-30T02:35:32.549Z,21.70
2022-07-30T02:38:02.990Z,21.60
2022-07-30T02:40:31.357Z,21.60
2022-07-30T02:43:01.759Z,21.60
2022-07-30T02:45:30.968Z,21.50
2022-07-30T02:48:02.194Z,21.50
2022-07-30T02:50:31.695Z,21.60
2022-07-30T02:53:01.642Z,21.60
2022-07-30T02:55:33.444Z,21.50
2022-07-30T02:58:05.193Z,21.50
2022-07-30T03:00:34.751Z,21.50
2022-07-30T03:03:05.843Z,21.40
2022-07-30T03:05:34.592Z,21.30
2022-07-30T03:08:03.806Z,21.00
2022-07-30T03:10:32.943Z,20.80
2022-07-30T03:13:03.358Z,20.60
2022-07-30T03:15:32.156Z,20.40
2022-07-30T03:18:02.508Z,20.30
2022-07-30T03:20:33.203Z,20.40
2022-07-30T03:23:03.288Z,20.50
2022-07-30T03:25:32.899Z,20.70
2022-07-30T03:28:04.479Z,20.80
2022-07-30T03:30:34.453Z,21.00
2022-07-30T03:33:03.321Z,21.10
2022-07-30T03:35:32.410Z,21.30
2022-07-30T03:38:01.039Z,21.30
2022-07-30T03:40:30.890Z,21.20
2022-07-30T03:42:59.489Z,21.20
2022-07-30T03:45:29.685Z,21.20
2022-07-30T03:47:58.569Z,21.30
2022-07-30T03:50:27.114Z,21.50
2022-07-30T03:52:55.282Z,21.60
2022-07-30T03:55:24.213Z,21.70
2022-07-30T03:57:52.540Z,21.70
2022-07-30T04:00:20.694Z,21.70
2022-07-30T04:02:50.142Z,21.60
2022-07-30T04:05:18.340Z,21.50
2022-07-30T04:07:46.504Z,21.50
2022-07-30T04:10:15.437Z,21.50
2022-07-30T04:12:43.401Z,21.40
2022-07-30T04:16:37.018Z,21.30
2022-07-30T04:18:05.461Z,21.40
2022-07-30T04:20:40.858Z,21.30
2022-07-30T04:23:10.620Z,21.20
2022-07-30T04:25:39.354Z,21.10
2022-07-30T04:28:07.526Z,21.00
2022-07-30T04:30:35.761Z,20.90
2022-07-30T04:33:06.249Z,20.80
2022-07-30T04:35:51.455Z,20.60
2022-07-30T04:38:20.920Z,20.70
2022-07-30T04:40:49.637Z,20.70
2022-07-30T04:43:17.729Z,20.60
2022-07-30T04:45:46.687Z,20.70
2022-07-30T04:48:16.044Z,20.70
2022-07-30T04:50:47.903Z,20.90
2022-07-30T04:53:16.702Z,20.80
2022-07-30T04:55:47.888Z,20.70
2022-07-30T04:58:19.986Z,20.70
2022-07-30T05:00:49.546Z,20.60
2022-07-30T05:03:19.663Z,20.50
2022-07-30T05:05:49.784Z,20.40
2022-07-30T05:08:19.344Z,20.50
2022-07-30T05:10:47.329Z,20.60
2022-07-30T05:13:16.259Z,20.60
2022-07-30T05:15:45.525Z,20.80
2022-07-30T05:18:13.908Z,21.00
2022-07-30T05:20:43.303Z,21.30
2022-07-30T05:23:11.234Z,21.60
2022-07-30T05:25:39.208Z,21.60
2022-07-30T05:28:07.178Z,21.60
2022-07-30T05:30:35.170Z,21.40
2022-07-30T05:33:03.511Z,21.50
2022-07-30T05:35:35.039Z,21.60
2022-07-30T05:38:04.363Z,21.60
2022-07-30T05:40:32.364Z,21.50
2022-07-30T05:43:00.303Z,21.60
2022-07-30T05:45:28.299Z,21.60
2022-07-30T05:47:56.271Z,21.60
2022-07-30T05:50:24.490Z,21.50
2022-07-30T05:52:52.465Z,21.60
2022-07-30T05:55:21.995Z,21.50
2022-07-30T05:57:50.002Z,21.60
2022-07-30T06:00:19.022Z,21.70
2022-07-30T06:02:47.036Z,21.70
2022-07-30T06:05:14.999Z,21.70
2022-07-30T06:07:42.979Z,21.70
2022-07-30T06:10:11.128Z,21.70
2022-07-30T06:12:42.293Z,21.80
2022-07-30T06:15:11.626Z,21.70
2022-07-30T06:17:44.106Z,21.80
2022-07-30T06:20:21.293Z,21.80
2022-07-30T06:22:49.226Z,21.90
2022-07-30T06:25:18.596Z,21.90
2022-07-30T06:27:48.150Z,22.00
2022-07-30T06:30:16.221Z,22.00
2022-07-30T06:32:45.707Z,22.10
2022-07-30T06:35:16.780Z,22.10
2022-07-30T06:38:05.564Z,22.20
2022-07-30T06:40:33.389Z,22.20
2022-07-30T06:43:04.137Z,22.30
2022-07-30T06:45:32.315Z,22.40
2022-07-30T06:48:00.966Z,22.50
2022-07-30T06:50:29.002Z,22.50
2022-07-30T06:52:56.977Z,22.60
2022-07-30T06:55:25.553Z,22.70
2022-07-30T06:57:53.551Z,22.70
2022-07-30T07:00:22.863Z,22.70
2022-07-30T07:02:50.789Z,22.80
2022-07-30T07:05:20.484Z,22.80
2022-07-30T07:07:58.351Z,22.80
2022-07-30T07:10:27.331Z,22.80
2022-07-30T07:12:55.403Z,22.80
2022-07-30T07:15:36.311Z,22.80
2022-07-30T07:18:06.457Z,22.80
2022-07-30T07:20:34.505Z,22.80
2022-07-30T07:23:09.054Z,22.60
2022-07-30T07:25:40.430Z,22.40
2022-07-30T07:28:12.460Z,22.20
2022-07-30T07:30:44.277Z,22.10
2022-07-30T07:33:13.387Z,22.00
2022-07-30T07:35:49.614Z,21.90
2022-07-30T07:38:18.756Z,21.80
2022-07-30T07:40:47.357Z,21.80
2022-07-30T07:43:15.714Z,21.90
2022-07-30T07:45:45.563Z,21.90
2022-07-30T07:48:14.250Z,21.90
2022-07-30T07:50:42.553Z,21.90
2022-07-30T07:53:10.560Z,21.90
2022-07-30T07:55:38.501Z,21.90
2022-07-30T07:58:06.688Z,21.90
2022-07-30T08:00:34.763Z,21.80
2022-07-30T08:03:04.498Z,21.80
2022-07-30T08:06:00.945Z,21.80
2022-07-30T08:08:20.540Z,21.80
2022-07-30T08:10:48.643Z,21.80
2022-07-30T08:13:48.153Z,21.90
2022-07-30T08:16:04.821Z,21.80
2022-07-30T08:18:34.120Z,21.80
2022-07-30T08:21:02.063Z,21.80
2022-07-30T08:23:30.240Z,21.80
2022-07-30T08:25:58.863Z,21.70
2022-07-30T08:28:36.386Z,21.60
2022-07-30T08:31:04.967Z,21.50
2022-07-30T08:33:34.351Z,21.60
2022-07-30T08:36:04.109Z,21.60
2022-07-30T08:38:36.990Z,21.60
2022-07-30T08:41:04.972Z,21.70
2022-07-30T08:43:34.192Z,21.80
2022-07-30T08:46:03.552Z,21.80
2022-07-30T08:48:32.059Z,22.00
2022-07-30T08:51:01.954Z,22.10
2022-07-30T08:53:30.519Z,22.20
2022-07-30T08:55:58.849Z,22.10
2022-07-30T08:58:30.467Z,22.20
2022-07-30T09:00:59.119Z,22.20
2022-07-30T09:03:27.124Z,22.20
2022-07-30T09:05:55.132Z,22.30
2022-07-30T09:08:24.471Z,22.30
2022-07-30T09:10:53.220Z,22.30
2022-07-30T09:13:26.577Z,22.40
2022-07-30T09:15:55.132Z,22.50
2022-07-30T09:18:32.701Z,22.50
2022-07-30T09:21:02.320Z,22.60
2022-07-30T09:23:31.707Z,22.60
2022-07-30T09:26:00.846Z,22.60
2022-07-30T09:28:31.174Z,22.70
2022-07-30T09:30:59.350Z,22.80
2022-07-30T09:33:36.200Z,22.80
2022-07-30T09:36:05.797Z,22.80
2022-07-30T09:38:46.110Z,22.80
2022-07-30T09:41:36.352Z,22.70
2022-07-30T09:44:05.238Z,22.80
2022-07-30T09:46:44.960Z,22.80
2022-07-30T09:49:16.823Z,22.80
2022-07-30T09:51:54.793Z,22.80
2022-07-30T09:54:26.874Z,22.90
2022-07-30T09:57:22.828Z,23.00
2022-07-30T09:59:56.635Z,23.00
2022-07-30T10:02:32.018Z,23.10
2022-07-30T10:05:14.426Z,23.20
2022-07-30T10:07:51.024Z,23.10
2022-07-30T10:10:25.676Z,23.10
2022-07-30T10:12:57.771Z,23.10
2022-07-30T10:15:28.288Z,23.20
2022-07-30T10:17:57.082Z,23.40
2022-07-30T10:20:26.034Z,23.40
2022-07-30T10:22:54.392Z,23.30
2022-07-30T10:25:27.923Z,23.40
2022-07-30T10:27:57.891Z,23.50
2022-07-30T10:30:29.361Z,23.60
2022-07-30T10:33:00.005Z,23.70
2022-07-30T10:35:34.917Z,23.60
2022-07-30T10:38:13.513Z,23.70
2022-07-30T10:40:49.110Z,23.80
2022-07-30T10:43:57.040Z,23.90
2022-07-30T10:46:38.093Z,24.00
2022-07-30T10:49:18.833Z,24.10
2022-07-30T10:51:49.286Z,24.20
2022-07-30T10:54:39.636Z,24.30
2022-07-30T10:57:14.931Z,24.30
2022-07-30T11:00:15.408Z,24.30
2022-07-30T11:03:18.218Z,24.40
2022-07-30T11:05:48.145Z,24.40
2022-07-30T11:08:36.248Z,24.40
2022-07-30T11:11:19.286Z,24.60
2022-07-30T11:13:53.518Z,24.60
2022-07-30T11:16:23.297Z,24.70
2022-07-30T11:19:53.251Z,24.70
2022-07-30T11:22:26.107Z,24.60
2022-07-30T11:24:54.896Z,24.70
2022-07-30T11:27:41.443Z,24.80
2022-07-30T11:30:35.362Z,24.80
2022-07-30T11:33:32.060Z,24.70
2022-07-30T11:36:12.621Z,24.90
2022-07-30T11:39:06.712Z,24.90
2022-07-30T11:41:35.733Z,25.10
2022-07-30T11:44:29.049Z,25.30
2022-07-30T11:46:57.492Z,25.10
2022-07-30T11:49:26.018Z,25.20
2022-07-30T11:51:55.430Z,25.30
2022-07-30T11:54:23.395Z,25.30
2022-07-30T11:57:02.203Z,25.40
2022-07-30T11:59:32.179Z,25.40
2022-07-30T12:02:02.087Z,25.50
2022-07-30T12:04:31.272Z,25.50
2022-07-30T12:07:00.860Z,25.70
2022-07-30T12:09:29.725Z,25.80
2022-07-30T12:11:58.352Z,25.80
2022-07-30T12:14:26.331Z,25.90
2022-07-30T12:16:55.604Z,26.10
2022-07-30T12:19:23.604Z,26.10
2022-07-30T12:21:53.654Z,26.30
2022-07-30T12:24:27.352Z,26.30
2022-07-30T12:27:05.905Z,26.50
2022-07-30T12:29:34.950Z,26.40
2022-07-30T12:32:03.051Z,26.30
2022-07-30T12:34:31.016Z,26.50
2022-07-30T12:37:09.791Z,26.70
2022-07-30T12:39:40.542Z,26.80
2022-07-30T12:42:18.667Z,26.80
2022-07-30T12:44:49.076Z,26.90
2022-07-30T12:47:23.749Z,26.80
2022-07-30T12:49:53.121Z,26.80
2022-07-30T12:52:27.898Z,26.90
2022-07-30T12:55:06.429Z,26.80
2022-07-30T12:57:53.578Z,26.80
2022-07-30T13:00:22.314Z,26.80
2022-07-30T13:02:50.422Z,27.00
2022-07-30T13:05:18.447Z,26.90
2022-07-30T13:08:00.003Z,26.80
2022-07-30T13:10:31.485Z,26.90
2022-07-30T13:13:00.001Z,27.00
2022-07-30T13:15:28.053Z,26.90
2022-07-30T13:17:56.166Z,27.00
2022-07-30T13:20:24.136Z,26.90
2022-07-30T13:22:52.152Z,26.80
2022-07-30T13:25:20.103Z,26.90
2022-07-30T13:27:50.225Z,27.00
2022-07-30T13:30:18.160Z,27.00
2022-07-30T13:32:46.181Z,27.10
2022-07-30T13:35:14.176Z,27.40
2022-07-30T13:37:42.146Z,27.40
2022-07-30T13:40:11.384Z,27.30
2022-07-30T13:42:39.336Z,27.20
2022-07-30T13:45:10.119Z,27.10
2022-07-30T13:47:38.129Z,27.30
2022-07-30T13:50:06.871Z,27.50
2022-07-30T13:52:34.833Z,27.60
2022-07-30T13:55:02.907Z,27.60
2022-07-30T13:57:30.834Z,27.80
2022-07-30T13:59:58.817Z,28.00
2022-07-30T14:02:28.355Z,28.00
2022-07-30T14:04:59.725Z,28.00
2022-07-30T14:07:27.750Z,27.80
2022-07-30T14:09:55.710Z,27.70
2022-07-30T14:12:23.663Z,27.70
2022-07-30T14:14:51.996Z,27.30
2022-07-30T14:17:19.940Z,27.50
2022-07-30T14:19:50.218Z,27.50
2022-07-30T14:22:18.390Z,27.60
2022-07-30T14:24:46.338Z,27.50
2022-07-30T14:27:14.399Z,27.40
2022-07-30T14:29:42.376Z,27.40
2022-07-30T14:32:10.327Z,27.50
2022-07-30T14:34:38.427Z,27.40
2022-07-30T14:37:09.766Z,27.40
2022-07-30T14:39:42.502Z,27.30
2022-07-30T14:42:10.901Z,27.30
2022-07-30T14:44:38.901Z,27.00
2022-07-30T14:47:07.517Z,27.20
2022-07-30T14:49:35.784Z,27.20
2022-07-30T14:52:03.780Z,27.20
2022-07-30T14:54:33.188Z,27.20
2022-07-30T14:57:01.526Z,27.50
2022-07-30T14:59:29.621Z,27.60
2022-07-30T15:01:57.676Z,27.70
2022-07-30T15:04:25.664Z,27.70
2022-07-30T15:06:53.801Z,27.70
2022-07-30T15:09:21.757Z,27.80
2022-07-30T15:12:09.459Z,27.90
2022-07-30T15:14:38.372Z,27.90
2022-07-30T15:17:08.155Z,27.90
2022-07-30T15:19:36.284Z,27.80
2022-07-30T15:22:05.409Z,27.50
2022-07-30T15:24:33.760Z,27.40
2022-07-30T15:27:03.097Z,27.50
2022-07-30T15:29:32.000Z,27.70
2022-07-30T15:32:01.579Z,27.90
2022-07-30T15:34:34.038Z,27.70
2022-07-30T15:37:02.737Z,27.50
2022-07-30T15:39:32.777Z,27.50
2022-07-30T15:42:03.057Z,27.20
2022-07-30T15:44:31.362Z,27.50
2022-07-30T15:46:59.478Z,27.30
2022-07-30T15:49:28.280Z,27.50
2022-07-30T15:51:57.378Z,27.50
2022-07-30T15:54:25.509Z,27.60
2022-07-30T15:56:54.750Z,27.70
2022-07-30T15:59:31.251Z,27.80
2022-07-30T16:01:59.906Z,28.00
2022-07-30T16:04:31.178Z,27.80
2022-07-30T16:07:00.280Z,27.40
2022-07-30T16:09:28.571Z,27.60
2022-07-30T16:11:56.943Z,27.60
2022-07-30T16:14:26.677Z,27.90
2022-07-30T16:16:56.105Z,27.90
2022-07-30T16:19:24.127Z,27.80
2022-07-30T16:21:52.196Z,27.70
2022-07-30T16:24:20.306Z,27.50
2022-07-30T16:26:48.337Z,27.50
2022-07-30T16:29:16.305Z,27.40
2022-07-30T16:31:44.359Z,27.60
2022-07-30T16:34:13.832Z,27.70
2022-07-30T16:36:41.778Z,27.50
2022-07-30T16:39:09.756Z,27.20
2022-07-30T16:41:37.947Z,27.40
2022-07-30T16:44:06.264Z,27.40
2022-07-30T16:46:34.378Z,27.60
2022-07-30T16:49:02.367Z,27.80
2022-07-30T16:51:31.992Z,28.00
2022-07-30T16:54:00.068Z,28.00
2022-07-30T16:56:28.259Z,28.00
2022-07-30T16:58:56.226Z,27.80
2022-07-30T17:01:24.248Z,27.80
2022-07-30T17:03:52.243Z,27.80
2022-07-30T17:06:20.154Z,27.90
2022-07-30T17:08:49.480Z,28.00
2022-07-30T17:11:18.261Z,28.10
2022-07-30T17:14:05.552Z,28.00
2022-07-30T17:16:33.532Z,28.10
2022-07-30T17:19:01.438Z,28.10
2022-07-30T17:21:37.934Z,28.20
2022-07-30T17:24:11.747Z,28.20
2022-07-30T17:26:42.847Z,28.30
2022-07-30T17:29:14.259Z,28.30
2022-07-30T17:31:44.104Z,28.30
2022-07-30T17:34:13.879Z,28.30
2022-07-30T17:36:47.027Z,28.30
2022-07-30T17:40:18.965Z,28.30
2022-07-30T17:42:11.854Z,28.30
2022-07-30T17:44:41.038Z,28.30
2022-07-30T17:47:14.473Z,28.30
2022-07-30T17:49:43.073Z,28.10
2022-07-30T17:52:11.124Z,28.10
2022-07-30T17:54:40.504Z,28.20
2022-07-30T17:57:08.797Z,28.10
2022-07-30T17:59:36.802Z,28.10
2022-07-30T18:02:05.519Z,28.00
2022-07-30T18:04:34.763Z,28.10
2022-07-30T18:07:02.785Z,28.10
2022-07-30T18:09:37.827Z,28.10
2022-07-30T18:12:09.953Z,28.20
2022-07-30T18:14:38.612Z,28.20
2022-07-30T18:17:09.067Z,28.10
2022-07-30T18:19:40.905Z,28.10
2022-07-30T18:22:09.077Z,28.10
2022-07-30T18:24:40.301Z,28.10
2022-07-30T18:27:11.491Z,28.00
2022-07-30T18:29:39.438Z,27.90
2022-07-30T18:32:08.428Z,27.90
2022-07-30T18:34:36.404Z,28.00
2022-07-30T18:37:04.378Z,28.10
2022-07-30T18:39:32.318Z,28.20
2022-07-30T18:42:00.783Z,28.30
2022-07-30T18:44:30.444Z,28.30
2022-07-30T18:46:58.471Z,28.30
2022-07-30T18:49:36.604Z,28.40
2022-07-30T18:52:07.895Z,28.40
2022-07-30T18:54:37.851Z,28.40
2022-07-30T18:57:10.064Z,28.40
2022-07-30T18:59:42.825Z,28.30
2022-07-30T19:02:10.800Z,28.20
2022-07-30T19:04:38.980Z,28.20
2022-07-30T19:07:07.452Z,28.10
2022-07-30T19:09:35.585Z,28.10
2022-07-30T19:12:03.983Z,28.10
2022-07-30T19:14:32.166Z,28.10
2022-07-30T19:17:01.482Z,28.10
2022-07-30T19:19:30.557Z,28.20
2022-07-30T19:21:59.052Z,28.20
2022-07-30T19:24:27.774Z,28.20
2022-07-30T19:26:56.253Z,28.20
2022-07-30T19:29:24.456Z,28.20
2022-07-30T19:31:52.412Z,28.20
2022-07-30T19:34:21.782Z,28.10
2022-07-30T19:36:49.720Z,28.00
2022-07-30T19:39:21.183Z,28.00
2022-07-30T19:41:50.930Z,27.90
2022-07-30T19:44:19.324Z,27.90
2022-07-30T19:46:48.688Z,27.90
2022-07-30T19:49:21.879Z,28.00
2022-07-30T19:52:02.243Z,28.00
2022-07-30T19:54:37.949Z,28.10
2022-07-30T19:57:05.931Z,28.00
2022-07-30T19:59:46.209Z,28.00
2022-07-30T20:02:22.608Z,28.00
2022-07-30T20:04:52.070Z,28.00
2022-07-30T20:07:20.040Z,28.00
2022-07-30T20:09:48.597Z,27.90
2022-07-30T20:12:17.293Z,27.80
2022-07-30T20:14:45.329Z,27.80
2022-07-30T20:17:13.709Z,27.70
2022-07-30T20:19:47.943Z,27.70
2022-07-30T20:22:18.084Z,27.60
2022-07-30T20:24:48.427Z,27.60
2022-07-30T20:27:36.220Z,27.60
2022-07-30T20:30:05.691Z,27.60
2022-07-30T20:32:33.657Z,27.60
2022-07-30T20:35:01.626Z,27.60
2022-07-30T20:37:30.971Z,27.50
2022-07-30T20:39:59.151Z,27.40
2022-07-30T20:42:28.342Z,27.40
2022-07-30T20:44:58.222Z,27.30
2022-07-30T20:47:37.480Z,27.30
2022-07-30T20:50:09.496Z,27.20
2022-07-30T20:52:40.267Z,27.20
2022-07-30T20:55:09.340Z,27.20
2022-07-30T20:57:57.301Z,27.20
2022-07-30T21:00:25.540Z,27.20
2022-07-30T21:02:53.513Z,27.10
2022-07-30T21:05:22.052Z,27.10
2022-07-30T21:07:52.888Z,27.00
2022-07-30T21:10:23.360Z,27.00
2022-07-30T21:12:53.409Z,27.00
2022-07-30T21:15:32.610Z,27.00
2022-07-30T21:18:01.623Z,27.00
2022-07-30T21:20:30.003Z,27.00
2022-07-30T21:23:04.457Z,27.00
2022-07-30T21:25:33.484Z,27.00
2022-07-30T21:28:02.908Z,27.00
2022-07-30T21:30:32.740Z,27.00
2022-07-30T21:33:00.936Z,26.90
2022-07-30T21:35:31.632Z,26.90
2022-07-30T21:38:01.597Z,26.90
2022-07-30T21:40:31.115Z,26.90
2022-07-30T21:42:59.062Z,26.80
2022-07-30T21:45:37.873Z,26.80
2022-07-30T21:48:08.888Z,26.80
2022-07-30T21:50:39.925Z,26.70
2022-07-30T21:53:09.542Z,26.80
2022-07-30T21:55:52.494Z,26.80
2022-07-30T21:58:26.337Z,26.80
2022-07-30T22:01:04.135Z,26.80
2022-07-30T22:04:02.970Z,26.80
2022-07-30T22:06:32.702Z,26.70
2022-07-30T22:09:02.711Z,26.70
2022-07-30T22:11:42.863Z,26.70
2022-07-30T22:14:13.346Z,26.70
2022-07-30T22:16:46.265Z,26.60
2022-07-30T22:19:14.845Z,26.60
2022-07-30T22:21:46.280Z,26.60
2022-07-30T22:24:29.942Z,26.60
2022-07-30T22:27:00.049Z,26.60
2022-07-30T22:29:48.815Z,26.60
2022-07-30T22:32:16.955Z,26.50
2022-07-30T22:34:45.045Z,26.40
2022-07-30T22:37:14.786Z,26.40
2022-07-30T22:39:50.267Z,26.50
2022-07-30T22:42:19.709Z,26.40
2022-07-30T22:44:48.334Z,26.50
2022-07-30T22:47:20.965Z,26.50
2022-07-30T22:49:56.525Z,26.40
2022-07-30T22:52:27.440Z,26.40
2022-07-30T22:55:08.675Z,26.40
2022-07-30T22:57:37.842Z,26.40
2022-07-30T23:00:10.866Z,26.40
2022-07-30T23:02:39.442Z,26.40
2022-07-30T23:05:08.011Z,26.40
2022-07-30T23:07:39.895Z,26.30
2022-07-30T23:10:16.941Z,26.30
2022-07-30T23:12:48.235Z,26.30
2022-07-30T23:15:16.444Z,26.30
2022-07-30T23:17:44.645Z,26.30
2022-07-30T23:20:14.637Z,26.30
2022-07-30T23:22:42.567Z,26.20
2022-07-30T23:25:12.778Z,26.30
2022-07-30T23:27:41.634Z,26.20
2022-07-30T23:30:11.485Z,26.20
2022-07-30T23:32:40.772Z,26.10
2022-07-30T23:35:10.371Z,26.10
2022-07-30T23:37:48.209Z,26.10
2022-07-30T23:40:19.402Z,26.00
2022-07-30T23:42:47.978Z,26.00
2022-07-30T23:45:15.987Z,26.00
2022-07-30T23:48:00.943Z,26.00
2022-07-30T23:50:31.969Z,26.00
2022-07-30T23:53:00.137Z,26.00
2022-07-30T23:55:30.428Z,25.90
2022-07-30T23:57:58.887Z,26.00
